Preview of NWS' New Version of Forecast
This preview is not operational and should not be used for support decisions.

Terminal Aerodrome Forecast (TAF)

Issued by National Weather Service (NWS)

                            
000
FTUS42 KKEY 242333
TAFEYW
TAF
KEYW 242333Z 2500/2524 09010KT P6SM FEW030 SCT060 BKN200
     FM250800 07008KT P6SM SCT025 BKN040
     FM251600 04006KT P6SM FEW035 SCT080=